<?xml version="1.0" encoding="UTF-8" standalone="no" ?>
<gpx xmlns="http://www.topografix.com/GPX/1/1" xmlns:xsi="http://www.w3.org/2001/XMLSchema-instance" xsi:schemaLocation="http://www.topografix.com/GPX/1/1 http://www.topografix.com/GPX/1/1/gpx.xsd" version="1.1" creator="VisuGPX - https://www.visugpx.com">
  <metadata>
    <name>14099488-Buc_09012022</name>
  </metadata>
  <trk>
    <name><![CDATA[14099488-Buc_09012022]]></name>
    <trkseg>
      <trkpt lat="48.77504" lon="2.12584">
        <ele>105</ele>
        <time>2022-01-09T01:07:05Z</time>
      </trkpt>
      <trkpt lat="48.77493" lon="2.12597">
        <ele>106</ele>
        <time>2022-01-09T01:07:24Z</time>
      </trkpt>
      <trkpt lat="48.77494" lon="2.1269">
        <ele>107</ele>
        <time>2022-01-09T01:08:45Z</time>
      </trkpt>
      <trkpt lat="48.77481" lon="2.12715">
        <ele>108</ele>
        <time>2022-01-09T01:09:13Z</time>
      </trkpt>
      <trkpt lat="48.77481" lon="2.12796">
        <ele>109</ele>
        <time>2022-01-09T01:10:25Z</time>
      </trkpt>
      <trkpt lat="48.77471" lon="2.12847">
        <ele>110</ele>
        <time>2022-01-09T01:11:11Z</time>
      </trkpt>
      <trkpt lat="48.77496" lon="2.12861">
        <ele>109</ele>
        <time>2022-01-09T01:11:47Z</time>
      </trkpt>
      <trkpt lat="48.77518" lon="2.12902">
        <ele>108</ele>
        <time>2022-01-09T01:12:33Z</time>
      </trkpt>
      <trkpt lat="48.775" lon="2.12947">
        <ele>107</ele>
        <time>2022-01-09T01:13:20Z</time>
      </trkpt>
      <trkpt lat="48.77489" lon="2.12993">
        <ele>107</ele>
        <time>2022-01-09T01:14:03Z</time>
      </trkpt>
      <trkpt lat="48.7747" lon="2.13062">
        <ele>106</ele>
        <time>2022-01-09T01:15:09Z</time>
      </trkpt>
      <trkpt lat="48.77457" lon="2.13093">
        <ele>106</ele>
        <time>2022-01-09T01:15:41Z</time>
      </trkpt>
      <trkpt lat="48.77411" lon="2.13106">
        <ele>107</ele>
        <time>2022-01-09T01:16:43Z</time>
      </trkpt>
      <trkpt lat="48.77406" lon="2.1309">
        <ele>107</ele>
        <time>2022-01-09T01:16:59Z</time>
      </trkpt>
      <trkpt lat="48.77358" lon="2.13136">
        <ele>111</ele>
        <time>2022-01-09T01:18:15Z</time>
      </trkpt>
      <trkpt lat="48.77313" lon="2.13208">
        <ele>116</ele>
        <time>2022-01-09T01:19:42Z</time>
      </trkpt>
      <trkpt lat="48.77289" lon="2.13209">
        <ele>118</ele>
        <time>2022-01-09T01:20:14Z</time>
      </trkpt>
      <trkpt lat="48.77256" lon="2.13189">
        <ele>120</ele>
        <time>2022-01-09T01:21:01Z</time>
      </trkpt>
      <trkpt lat="48.77241" lon="2.13151">
        <ele>121</ele>
        <time>2022-01-09T01:21:40Z</time>
      </trkpt>
      <trkpt lat="48.77233" lon="2.13143">
        <ele>121</ele>
        <time>2022-01-09T01:21:53Z</time>
      </trkpt>
      <trkpt lat="48.77156" lon="2.13056">
        <ele>127</ele>
        <time>2022-01-09T01:24:01Z</time>
      </trkpt>
      <trkpt lat="48.77139" lon="2.13053">
        <ele>129</ele>
        <time>2022-01-09T01:24:24Z</time>
      </trkpt>
      <trkpt lat="48.77133" lon="2.13053">
        <ele>130</ele>
        <time>2022-01-09T01:24:32Z</time>
      </trkpt>
      <trkpt lat="48.77133" lon="2.13145">
        <ele>132</ele>
        <time>2022-01-09T01:25:53Z</time>
      </trkpt>
      <trkpt lat="48.77142" lon="2.1317">
        <ele>131</ele>
        <time>2022-01-09T01:26:18Z</time>
      </trkpt>
      <trkpt lat="48.77161" lon="2.13199">
        <ele>126</ele>
        <time>2022-01-09T01:26:54Z</time>
      </trkpt>
      <trkpt lat="48.77164" lon="2.13224">
        <ele>124</ele>
        <time>2022-01-09T01:27:16Z</time>
      </trkpt>
      <trkpt lat="48.77143" lon="2.13242">
        <ele>127</ele>
        <time>2022-01-09T01:27:49Z</time>
      </trkpt>
      <trkpt lat="48.77084" lon="2.13473">
        <ele>116</ele>
        <time>2022-01-09T01:31:26Z</time>
      </trkpt>
      <trkpt lat="48.77078" lon="2.13524">
        <ele>115</ele>
        <time>2022-01-09T01:32:12Z</time>
      </trkpt>
      <trkpt lat="48.77075" lon="2.13589">
        <ele>116</ele>
        <time>2022-01-09T01:33:09Z</time>
      </trkpt>
      <trkpt lat="48.77059" lon="2.13669">
        <ele>117</ele>
        <time>2022-01-09T01:34:23Z</time>
      </trkpt>
      <trkpt lat="48.77042" lon="2.13722">
        <ele>115</ele>
        <time>2022-01-09T01:35:15Z</time>
      </trkpt>
      <trkpt lat="48.77028" lon="2.13728">
        <ele>116</ele>
        <time>2022-01-09T01:35:34Z</time>
      </trkpt>
      <trkpt lat="48.77002" lon="2.13729">
        <ele>120</ele>
        <time>2022-01-09T01:36:09Z</time>
      </trkpt>
      <trkpt lat="48.76985" lon="2.13763">
        <ele>121</ele>
        <time>2022-01-09T01:36:46Z</time>
      </trkpt>
      <trkpt lat="48.76972" lon="2.13803">
        <ele>120</ele>
        <time>2022-01-09T01:37:26Z</time>
      </trkpt>
      <trkpt lat="48.76953" lon="2.13856">
        <ele>119</ele>
        <time>2022-01-09T01:38:19Z</time>
      </trkpt>
      <trkpt lat="48.76961" lon="2.13963">
        <ele>113</ele>
        <time>2022-01-09T01:39:53Z</time>
      </trkpt>
      <trkpt lat="48.76978" lon="2.13992">
        <ele>110</ele>
        <time>2022-01-09T01:40:28Z</time>
      </trkpt>
      <trkpt lat="48.76997" lon="2.14011">
        <ele>107</ele>
        <time>2022-01-09T01:40:58Z</time>
      </trkpt>
      <trkpt lat="48.77014" lon="2.14018">
        <ele>105</ele>
        <time>2022-01-09T01:41:21Z</time>
      </trkpt>
      <trkpt lat="48.77085" lon="2.14114">
        <ele>102</ele>
        <time>2022-01-09T01:43:28Z</time>
      </trkpt>
      <trkpt lat="48.77123" lon="2.14108">
        <ele>104</ele>
        <time>2022-01-09T01:44:19Z</time>
      </trkpt>
      <trkpt lat="48.76972" lon="2.14505">
        <ele>100</ele>
        <time>2022-01-09T01:51:02Z</time>
      </trkpt>
      <trkpt lat="48.7691" lon="2.14435">
        <ele>99</ele>
        <time>2022-01-09T01:52:46Z</time>
      </trkpt>
      <trkpt lat="48.76869" lon="2.14436">
        <ele>102</ele>
        <time>2022-01-09T01:53:40Z</time>
      </trkpt>
      <trkpt lat="48.76837" lon="2.14465">
        <ele>104</ele>
        <time>2022-01-09T01:54:30Z</time>
      </trkpt>
      <trkpt lat="48.76793" lon="2.14627">
        <ele>106</ele>
        <time>2022-01-09T01:57:04Z</time>
      </trkpt>
      <trkpt lat="48.76765" lon="2.14711">
        <ele>104</ele>
        <time>2022-01-09T01:58:27Z</time>
      </trkpt>
      <trkpt lat="48.76717" lon="2.1481">
        <ele>103</ele>
        <time>2022-01-09T02:00:15Z</time>
      </trkpt>
      <trkpt lat="48.7664" lon="2.14894">
        <ele>107</ele>
        <time>2022-01-09T02:02:22Z</time>
      </trkpt>
      <trkpt lat="48.76627" lon="2.14915">
        <ele>109</ele>
        <time>2022-01-09T02:02:47Z</time>
      </trkpt>
      <trkpt lat="48.76598" lon="2.14977">
        <ele>115</ele>
        <time>2022-01-09T02:03:54Z</time>
      </trkpt>
      <trkpt lat="48.76759" lon="2.15065">
        <ele>99</ele>
        <time>2022-01-09T02:07:42Z</time>
      </trkpt>
      <trkpt lat="48.76759" lon="2.15111">
        <ele>99</ele>
        <time>2022-01-09T02:08:23Z</time>
      </trkpt>
      <trkpt lat="48.76758" lon="2.15135">
        <ele>98</ele>
        <time>2022-01-09T02:08:44Z</time>
      </trkpt>
      <trkpt lat="48.76748" lon="2.15161">
        <ele>98</ele>
        <time>2022-01-09T02:09:10Z</time>
      </trkpt>
      <trkpt lat="48.76759" lon="2.15204">
        <ele>98</ele>
        <time>2022-01-09T02:09:51Z</time>
      </trkpt>
      <trkpt lat="48.76737" lon="2.15215">
        <ele>99</ele>
        <time>2022-01-09T02:10:22Z</time>
      </trkpt>
      <trkpt lat="48.76723" lon="2.15258">
        <ele>100</ele>
        <time>2022-01-09T02:11:04Z</time>
      </trkpt>
      <trkpt lat="48.76716" lon="2.15312">
        <ele>99</ele>
        <time>2022-01-09T02:11:52Z</time>
      </trkpt>
      <trkpt lat="48.76701" lon="2.15363">
        <ele>98</ele>
        <time>2022-01-09T02:12:41Z</time>
      </trkpt>
      <trkpt lat="48.76679" lon="2.15404">
        <ele>98</ele>
        <time>2022-01-09T02:13:28Z</time>
      </trkpt>
      <trkpt lat="48.76658" lon="2.1543">
        <ele>98</ele>
        <time>2022-01-09T02:14:04Z</time>
      </trkpt>
      <trkpt lat="48.76649" lon="2.15451">
        <ele>99</ele>
        <time>2022-01-09T02:14:26Z</time>
      </trkpt>
      <trkpt lat="48.76646" lon="2.15479">
        <ele>99</ele>
        <time>2022-01-09T02:14:51Z</time>
      </trkpt>
      <trkpt lat="48.7665" lon="2.15508">
        <ele>98</ele>
        <time>2022-01-09T02:15:17Z</time>
      </trkpt>
      <trkpt lat="48.76661" lon="2.15533">
        <ele>97</ele>
        <time>2022-01-09T02:15:44Z</time>
      </trkpt>
      <trkpt lat="48.76674" lon="2.15546">
        <ele>96</ele>
        <time>2022-01-09T02:16:04Z</time>
      </trkpt>
      <trkpt lat="48.76707" lon="2.15558">
        <ele>96</ele>
        <time>2022-01-09T02:16:50Z</time>
      </trkpt>
      <trkpt lat="48.76714" lon="2.15594">
        <ele>95</ele>
        <time>2022-01-09T02:17:23Z</time>
      </trkpt>
      <trkpt lat="48.76697" lon="2.15642">
        <ele>95</ele>
        <time>2022-01-09T02:18:11Z</time>
      </trkpt>
      <trkpt lat="48.76702" lon="2.15711">
        <ele>95</ele>
        <time>2022-01-09T02:19:12Z</time>
      </trkpt>
      <trkpt lat="48.76692" lon="2.1578">
        <ele>96</ele>
        <time>2022-01-09T02:20:14Z</time>
      </trkpt>
      <trkpt lat="48.76646" lon="2.15873">
        <ele>94</ele>
        <time>2022-01-09T02:21:56Z</time>
      </trkpt>
      <trkpt lat="48.76591" lon="2.15936">
        <ele>91</ele>
        <time>2022-01-09T02:23:28Z</time>
      </trkpt>
      <trkpt lat="48.76572" lon="2.15894">
        <ele>92</ele>
        <time>2022-01-09T02:24:13Z</time>
      </trkpt>
      <trkpt lat="48.76515" lon="2.15984">
        <ele>91</ele>
        <time>2022-01-09T02:26:03Z</time>
      </trkpt>
      <trkpt lat="48.7652" lon="2.16015">
        <ele>91</ele>
        <time>2022-01-09T02:26:31Z</time>
      </trkpt>
      <trkpt lat="48.76541" lon="2.16049">
        <ele>91</ele>
        <time>2022-01-09T02:27:12Z</time>
      </trkpt>
      <trkpt lat="48.76642" lon="2.16098">
        <ele>100</ele>
        <time>2022-01-09T02:29:33Z</time>
      </trkpt>
      <trkpt lat="48.76618" lon="2.16184">
        <ele>98</ele>
        <time>2022-01-09T02:30:55Z</time>
      </trkpt>
      <trkpt lat="48.76608" lon="2.16293">
        <ele>98</ele>
        <time>2022-01-09T02:32:32Z</time>
      </trkpt>
      <trkpt lat="48.76689" lon="2.16304">
        <ele>115</ele>
        <time>2022-01-09T02:34:21Z</time>
      </trkpt>
      <trkpt lat="48.76703" lon="2.16297">
        <ele>118</ele>
        <time>2022-01-09T02:34:40Z</time>
      </trkpt>
      <trkpt lat="48.76717" lon="2.16309">
        <ele>123</ele>
        <time>2022-01-09T02:35:02Z</time>
      </trkpt>
      <trkpt lat="48.76743" lon="2.16304">
        <ele>129</ele>
        <time>2022-01-09T02:35:37Z</time>
      </trkpt>
      <trkpt lat="48.7676" lon="2.16308">
        <ele>134</ele>
        <time>2022-01-09T02:36:00Z</time>
      </trkpt>
      <trkpt lat="48.76775" lon="2.16394">
        <ele>139</ele>
        <time>2022-01-09T02:37:18Z</time>
      </trkpt>
      <trkpt lat="48.76835" lon="2.16404">
        <ele>151</ele>
        <time>2022-01-09T02:38:38Z</time>
      </trkpt>
      <trkpt lat="48.7684" lon="2.16366">
        <ele>151</ele>
        <time>2022-01-09T02:39:13Z</time>
      </trkpt>
      <trkpt lat="48.76862" lon="2.16312">
        <ele>151</ele>
        <time>2022-01-09T02:40:08Z</time>
      </trkpt>
      <trkpt lat="48.76866" lon="2.16278">
        <ele>150</ele>
        <time>2022-01-09T02:40:39Z</time>
      </trkpt>
      <trkpt lat="48.76845" lon="2.16195">
        <ele>147</ele>
        <time>2022-01-09T02:41:57Z</time>
      </trkpt>
      <trkpt lat="48.76816" lon="2.16126">
        <ele>143</ele>
        <time>2022-01-09T02:43:09Z</time>
      </trkpt>
      <trkpt lat="48.76818" lon="2.16063">
        <ele>143</ele>
        <time>2022-01-09T02:44:04Z</time>
      </trkpt>
      <trkpt lat="48.76826" lon="2.16014">
        <ele>143</ele>
        <time>2022-01-09T02:44:49Z</time>
      </trkpt>
      <trkpt lat="48.76844" lon="2.15997">
        <ele>145</ele>
        <time>2022-01-09T02:45:17Z</time>
      </trkpt>
      <trkpt lat="48.76889" lon="2.16">
        <ele>148</ele>
        <time>2022-01-09T02:46:17Z</time>
      </trkpt>
      <trkpt lat="48.77086" lon="2.16026">
        <ele>162</ele>
        <time>2022-01-09T02:50:41Z</time>
      </trkpt>
      <trkpt lat="48.77288" lon="2.16053">
        <ele>172</ele>
        <time>2022-01-09T02:55:12Z</time>
      </trkpt>
      <trkpt lat="48.77316" lon="2.1548">
        <ele>170</ele>
        <time>2022-01-09T03:03:37Z</time>
      </trkpt>
      <trkpt lat="48.77536" lon="2.15659">
        <ele>174</ele>
        <time>2022-01-09T03:09:10Z</time>
      </trkpt>
      <trkpt lat="48.77944" lon="2.15969">
        <ele>176</ele>
        <time>2022-01-09T03:19:19Z</time>
      </trkpt>
      <trkpt lat="48.77915" lon="2.16153">
        <ele>182</ele>
        <time>2022-01-09T03:22:05Z</time>
      </trkpt>
      <trkpt lat="48.77865" lon="2.16441">
        <ele>183</ele>
        <time>2022-01-09T03:26:27Z</time>
      </trkpt>
      <trkpt lat="48.78091" lon="2.16525">
        <ele>183</ele>
        <time>2022-01-09T03:31:38Z</time>
      </trkpt>
      <trkpt lat="48.7811" lon="2.16465">
        <ele>183</ele>
        <time>2022-01-09T03:32:36Z</time>
      </trkpt>
      <trkpt lat="48.78136" lon="2.16435">
        <ele>182</ele>
        <time>2022-01-09T03:33:20Z</time>
      </trkpt>
      <trkpt lat="48.78262" lon="2.16467">
        <ele>184</ele>
        <time>2022-01-09T03:36:10Z</time>
      </trkpt>
      <trkpt lat="48.78276" lon="2.16309">
        <ele>185</ele>
        <time>2022-01-09T03:38:31Z</time>
      </trkpt>
      <trkpt lat="48.78309" lon="2.16274">
        <ele>185</ele>
        <time>2022-01-09T03:39:24Z</time>
      </trkpt>
      <trkpt lat="48.78394" lon="2.16359">
        <ele>183</ele>
        <time>2022-01-09T03:41:40Z</time>
      </trkpt>
      <trkpt lat="48.7854" lon="2.16448">
        <ele>181</ele>
        <time>2022-01-09T03:45:10Z</time>
      </trkpt>
      <trkpt lat="48.78582" lon="2.16438">
        <ele>181</ele>
        <time>2022-01-09T03:46:07Z</time>
      </trkpt>
      <trkpt lat="48.78818" lon="2.16343">
        <ele>141</ele>
        <time>2022-01-09T03:51:33Z</time>
      </trkpt>
      <trkpt lat="48.78814" lon="2.15779">
        <ele>154</ele>
        <time>2022-01-09T03:59:49Z</time>
      </trkpt>
      <trkpt lat="48.7876" lon="2.15793">
        <ele>161</ele>
        <time>2022-01-09T04:01:02Z</time>
      </trkpt>
      <trkpt lat="48.78764" lon="2.15759">
        <ele>164</ele>
        <time>2022-01-09T04:01:32Z</time>
      </trkpt>
      <trkpt lat="48.78775" lon="2.15713">
        <ele>163</ele>
        <time>2022-01-09T04:02:15Z</time>
      </trkpt>
      <trkpt lat="48.78785" lon="2.15652">
        <ele>160</ele>
        <time>2022-01-09T04:03:10Z</time>
      </trkpt>
      <trkpt lat="48.78769" lon="2.15627">
        <ele>162</ele>
        <time>2022-01-09T04:03:41Z</time>
      </trkpt>
      <trkpt lat="48.78751" lon="2.15613">
        <ele>165</ele>
        <time>2022-01-09T04:04:08Z</time>
      </trkpt>
      <trkpt lat="48.78739" lon="2.15579">
        <ele>165</ele>
        <time>2022-01-09T04:04:42Z</time>
      </trkpt>
      <trkpt lat="48.78753" lon="2.15504">
        <ele>164</ele>
        <time>2022-01-09T04:05:50Z</time>
      </trkpt>
      <trkpt lat="48.78725" lon="2.15423">
        <ele>163</ele>
        <time>2022-01-09T04:07:11Z</time>
      </trkpt>
      <trkpt lat="48.78692" lon="2.15391">
        <ele>162</ele>
        <time>2022-01-09T04:08:03Z</time>
      </trkpt>
      <trkpt lat="48.78674" lon="2.15301">
        <ele>153</ele>
        <time>2022-01-09T04:09:26Z</time>
      </trkpt>
      <trkpt lat="48.78661" lon="2.15233">
        <ele>149</ele>
        <time>2022-01-09T04:10:28Z</time>
      </trkpt>
      <trkpt lat="48.78651" lon="2.15216">
        <ele>149</ele>
        <time>2022-01-09T04:10:48Z</time>
      </trkpt>
      <trkpt lat="48.78703" lon="2.15109">
        <ele>144</ele>
        <time>2022-01-09T04:12:45Z</time>
      </trkpt>
      <trkpt lat="48.78816" lon="2.14992">
        <ele>139</ele>
        <time>2022-01-09T04:15:48Z</time>
      </trkpt>
      <trkpt lat="48.78816" lon="2.14979">
        <ele>139</ele>
        <time>2022-01-09T04:15:59Z</time>
      </trkpt>
      <trkpt lat="48.78769" lon="2.15025">
        <ele>141</ele>
        <time>2022-01-09T04:17:14Z</time>
      </trkpt>
      <trkpt lat="48.78739" lon="2.15023">
        <ele>142</ele>
        <time>2022-01-09T04:17:54Z</time>
      </trkpt>
      <trkpt lat="48.7866" lon="2.14993">
        <ele>147</ele>
        <time>2022-01-09T04:19:42Z</time>
      </trkpt>
      <trkpt lat="48.78628" lon="2.14982">
        <ele>149</ele>
        <time>2022-01-09T04:20:26Z</time>
      </trkpt>
      <trkpt lat="48.78676" lon="2.14969">
        <ele>147</ele>
        <time>2022-01-09T04:21:31Z</time>
      </trkpt>
      <trkpt lat="48.78692" lon="2.14854">
        <ele>154</ele>
        <time>2022-01-09T04:23:15Z</time>
      </trkpt>
      <trkpt lat="48.78678" lon="2.14829">
        <ele>157</ele>
        <time>2022-01-09T04:23:43Z</time>
      </trkpt>
      <trkpt lat="48.78615" lon="2.14834">
        <ele>158</ele>
        <time>2022-01-09T04:25:08Z</time>
      </trkpt>
      <trkpt lat="48.78599" lon="2.14806">
        <ele>160</ele>
        <time>2022-01-09T04:25:40Z</time>
      </trkpt>
      <trkpt lat="48.78572" lon="2.14561">
        <ele>176</ele>
        <time>2022-01-09T04:29:19Z</time>
      </trkpt>
      <trkpt lat="48.78568" lon="2.1454">
        <ele>176</ele>
        <time>2022-01-09T04:29:38Z</time>
      </trkpt>
      <trkpt lat="48.78434" lon="2.14371">
        <ele>182</ele>
        <time>2022-01-09T04:33:30Z</time>
      </trkpt>
      <trkpt lat="48.78191" lon="2.14104">
        <ele>182</ele>
        <time>2022-01-09T04:40:11Z</time>
      </trkpt>
      <trkpt lat="48.78376" lon="2.13905">
        <ele>181</ele>
        <time>2022-01-09T04:45:13Z</time>
      </trkpt>
      <trkpt lat="48.78633" lon="2.138">
        <ele>169</ele>
        <time>2022-01-09T04:51:08Z</time>
      </trkpt>
      <trkpt lat="48.78726" lon="2.14079">
        <ele>179</ele>
        <time>2022-01-09T04:55:43Z</time>
      </trkpt>
      <trkpt lat="48.78591" lon="2.14209">
        <ele>184</ele>
        <time>2022-01-09T04:59:17Z</time>
      </trkpt>
      <trkpt lat="48.78654" lon="2.14263">
        <ele>182</ele>
        <time>2022-01-09T05:00:53Z</time>
      </trkpt>
      <trkpt lat="48.78826" lon="2.14389">
        <ele>174</ele>
        <time>2022-01-09T05:05:08Z</time>
      </trkpt>
      <trkpt lat="48.78854" lon="2.14434">
        <ele>171</ele>
        <time>2022-01-09T05:06:03Z</time>
      </trkpt>
      <trkpt lat="48.78871" lon="2.14496">
        <ele>165</ele>
        <time>2022-01-09T05:07:02Z</time>
      </trkpt>
      <trkpt lat="48.78987" lon="2.14611">
        <ele>155</ele>
        <time>2022-01-09T05:10:06Z</time>
      </trkpt>
      <trkpt lat="48.79066" lon="2.14672">
        <ele>148</ele>
        <time>2022-01-09T05:12:05Z</time>
      </trkpt>
      <trkpt lat="48.78967" lon="2.14468">
        <ele>165</ele>
        <time>2022-01-09T05:15:47Z</time>
      </trkpt>
      <trkpt lat="48.78932" lon="2.14389">
        <ele>171</ele>
        <time>2022-01-09T05:17:11Z</time>
      </trkpt>
      <trkpt lat="48.78933" lon="2.14133">
        <ele>169</ele>
        <time>2022-01-09T05:20:56Z</time>
      </trkpt>
      <trkpt lat="48.78875" lon="2.14023">
        <ele>172</ele>
        <time>2022-01-09T05:23:00Z</time>
      </trkpt>
      <trkpt lat="48.78876" lon="2.13988">
        <ele>172</ele>
        <time>2022-01-09T05:23:31Z</time>
      </trkpt>
      <trkpt lat="48.78885" lon="2.13923">
        <ele>172</ele>
        <time>2022-01-09T05:24:29Z</time>
      </trkpt>
      <trkpt lat="48.78847" lon="2.13906">
        <ele>173</ele>
        <time>2022-01-09T05:25:22Z</time>
      </trkpt>
      <trkpt lat="48.78862" lon="2.13855">
        <ele>174</ele>
        <time>2022-01-09T05:26:11Z</time>
      </trkpt>
      <trkpt lat="48.78851" lon="2.13809">
        <ele>175</ele>
        <time>2022-01-09T05:26:54Z</time>
      </trkpt>
      <trkpt lat="48.78888" lon="2.13699">
        <ele>176</ele>
        <time>2022-01-09T05:28:43Z</time>
      </trkpt>
      <trkpt lat="48.78917" lon="2.1367">
        <ele>175</ele>
        <time>2022-01-09T05:29:29Z</time>
      </trkpt>
      <trkpt lat="48.78939" lon="2.13644">
        <ele>172</ele>
        <time>2022-01-09T05:30:06Z</time>
      </trkpt>
      <trkpt lat="48.78946" lon="2.13616">
        <ele>170</ele>
        <time>2022-01-09T05:30:33Z</time>
      </trkpt>
      <trkpt lat="48.78943" lon="2.13591">
        <ele>168</ele>
        <time>2022-01-09T05:30:55Z</time>
      </trkpt>
      <trkpt lat="48.7892" lon="2.1354">
        <ele>168</ele>
        <time>2022-01-09T05:31:49Z</time>
      </trkpt>
      <trkpt lat="48.78884" lon="2.13488">
        <ele>168</ele>
        <time>2022-01-09T05:32:56Z</time>
      </trkpt>
      <trkpt lat="48.78874" lon="2.13407">
        <ele>166</ele>
        <time>2022-01-09T05:34:08Z</time>
      </trkpt>
      <trkpt lat="48.78877" lon="2.1339">
        <ele>166</ele>
        <time>2022-01-09T05:34:24Z</time>
      </trkpt>
      <trkpt lat="48.78917" lon="2.13342">
        <ele>170</ele>
        <time>2022-01-09T05:35:32Z</time>
      </trkpt>
      <trkpt lat="48.79003" lon="2.13335">
        <ele>176</ele>
        <time>2022-01-09T05:37:27Z</time>
      </trkpt>
      <trkpt lat="48.79044" lon="2.13345">
        <ele>176</ele>
        <time>2022-01-09T05:38:22Z</time>
      </trkpt>
      <trkpt lat="48.79129" lon="2.13338">
        <ele>177</ele>
        <time>2022-01-09T05:40:16Z</time>
      </trkpt>
      <trkpt lat="48.79191" lon="2.1334">
        <ele>176</ele>
        <time>2022-01-09T05:41:38Z</time>
      </trkpt>
      <trkpt lat="48.79248" lon="2.13346">
        <ele>173</ele>
        <time>2022-01-09T05:42:55Z</time>
      </trkpt>
      <trkpt lat="48.79247" lon="2.13305">
        <ele>174</ele>
        <time>2022-01-09T05:43:31Z</time>
      </trkpt>
      <trkpt lat="48.79238" lon="2.13257">
        <ele>175</ele>
        <time>2022-01-09T05:44:15Z</time>
      </trkpt>
      <trkpt lat="48.79257" lon="2.13194">
        <ele>173</ele>
        <time>2022-01-09T05:45:16Z</time>
      </trkpt>
      <trkpt lat="48.7926" lon="2.13159">
        <ele>172</ele>
        <time>2022-01-09T05:45:47Z</time>
      </trkpt>
      <trkpt lat="48.7926" lon="2.13148">
        <ele>171</ele>
        <time>2022-01-09T05:45:56Z</time>
      </trkpt>
      <trkpt lat="48.79189" lon="2.13058">
        <ele>172</ele>
        <time>2022-01-09T05:48:00Z</time>
      </trkpt>
      <trkpt lat="48.79173" lon="2.13042">
        <ele>173</ele>
        <time>2022-01-09T05:48:25Z</time>
      </trkpt>
      <trkpt lat="48.79153" lon="2.12972">
        <ele>172</ele>
        <time>2022-01-09T05:49:32Z</time>
      </trkpt>
      <trkpt lat="48.79163" lon="2.12888">
        <ele>170</ele>
        <time>2022-01-09T05:50:47Z</time>
      </trkpt>
      <trkpt lat="48.79151" lon="2.12846">
        <ele>171</ele>
        <time>2022-01-09T05:51:28Z</time>
      </trkpt>
      <trkpt lat="48.79163" lon="2.128">
        <ele>170</ele>
        <time>2022-01-09T05:52:11Z</time>
      </trkpt>
      <trkpt lat="48.79161" lon="2.1278">
        <ele>170</ele>
        <time>2022-01-09T05:52:29Z</time>
      </trkpt>
      <trkpt lat="48.79151" lon="2.1275">
        <ele>172</ele>
        <time>2022-01-09T05:52:58Z</time>
      </trkpt>
      <trkpt lat="48.79155" lon="2.12699">
        <ele>168</ele>
        <time>2022-01-09T05:53:44Z</time>
      </trkpt>
      <trkpt lat="48.79148" lon="2.12677">
        <ele>168</ele>
        <time>2022-01-09T05:54:05Z</time>
      </trkpt>
      <trkpt lat="48.79129" lon="2.12649">
        <ele>169</ele>
        <time>2022-01-09T05:54:40Z</time>
      </trkpt>
      <trkpt lat="48.79105" lon="2.12615">
        <ele>172</ele>
        <time>2022-01-09T05:55:24Z</time>
      </trkpt>
      <trkpt lat="48.79103" lon="2.12419">
        <ele>169</ele>
        <time>2022-01-09T05:58:17Z</time>
      </trkpt>
      <trkpt lat="48.79088" lon="2.12417">
        <ele>174</ele>
        <time>2022-01-09T05:58:37Z</time>
      </trkpt>
      <trkpt lat="48.79053" lon="2.1242">
        <ele>176</ele>
        <time>2022-01-09T05:59:23Z</time>
      </trkpt>
      <trkpt lat="48.79026" lon="2.1244">
        <ele>177</ele>
        <time>2022-01-09T06:00:04Z</time>
      </trkpt>
      <trkpt lat="48.78996" lon="2.12476">
        <ele>177</ele>
        <time>2022-01-09T06:00:55Z</time>
      </trkpt>
      <trkpt lat="48.78942" lon="2.12535">
        <ele>176</ele>
        <time>2022-01-09T06:02:23Z</time>
      </trkpt>
      <trkpt lat="48.78912" lon="2.12575">
        <ele>177</ele>
        <time>2022-01-09T06:03:17Z</time>
      </trkpt>
      <trkpt lat="48.78897" lon="2.12599">
        <ele>177</ele>
        <time>2022-01-09T06:03:46Z</time>
      </trkpt>
      <trkpt lat="48.78879" lon="2.12574">
        <ele>178</ele>
        <time>2022-01-09T06:04:18Z</time>
      </trkpt>
      <trkpt lat="48.78879" lon="2.12522">
        <ele>177</ele>
        <time>2022-01-09T06:05:04Z</time>
      </trkpt>
      <trkpt lat="48.78856" lon="2.12538">
        <ele>178</ele>
        <time>2022-01-09T06:05:38Z</time>
      </trkpt>
      <trkpt lat="48.78834" lon="2.12541">
        <ele>179</ele>
        <time>2022-01-09T06:06:07Z</time>
      </trkpt>
      <trkpt lat="48.78802" lon="2.12541">
        <ele>180</ele>
        <time>2022-01-09T06:06:50Z</time>
      </trkpt>
      <trkpt lat="48.78755" lon="2.12529">
        <ele>182</ele>
        <time>2022-01-09T06:07:54Z</time>
      </trkpt>
      <trkpt lat="48.78712" lon="2.12524">
        <ele>182</ele>
        <time>2022-01-09T06:08:51Z</time>
      </trkpt>
      <trkpt lat="48.78659" lon="2.12537">
        <ele>183</ele>
        <time>2022-01-09T06:10:03Z</time>
      </trkpt>
      <trkpt lat="48.7864" lon="2.12554">
        <ele>183</ele>
        <time>2022-01-09T06:10:32Z</time>
      </trkpt>
      <trkpt lat="48.78596" lon="2.12634">
        <ele>182</ele>
        <time>2022-01-09T06:12:04Z</time>
      </trkpt>
      <trkpt lat="48.78557" lon="2.12769">
        <ele>177</ele>
        <time>2022-01-09T06:14:13Z</time>
      </trkpt>
      <trkpt lat="48.78549" lon="2.12844">
        <ele>174</ele>
        <time>2022-01-09T06:15:20Z</time>
      </trkpt>
      <trkpt lat="48.78379" lon="2.12758">
        <ele>180</ele>
        <time>2022-01-09T06:19:19Z</time>
      </trkpt>
      <trkpt lat="48.78295" lon="2.12605">
        <ele>180</ele>
        <time>2022-01-09T06:22:14Z</time>
      </trkpt>
      <trkpt lat="48.78221" lon="2.1249">
        <ele>177</ele>
        <time>2022-01-09T06:24:36Z</time>
      </trkpt>
      <trkpt lat="48.78165" lon="2.12573">
        <ele>178</ele>
        <time>2022-01-09T06:26:20Z</time>
      </trkpt>
      <trkpt lat="48.78177" lon="2.12688">
        <ele>176</ele>
        <time>2022-01-09T06:28:03Z</time>
      </trkpt>
      <trkpt lat="48.77993" lon="2.12456">
        <ele>161</ele>
        <time>2022-01-09T06:33:22Z</time>
      </trkpt>
      <trkpt lat="48.78008" lon="2.12304">
        <ele>161</ele>
        <time>2022-01-09T06:35:37Z</time>
      </trkpt>
      <trkpt lat="48.78056" lon="2.11811">
        <ele>160</ele>
        <time>2022-01-09T06:42:55Z</time>
      </trkpt>
      <trkpt lat="48.78002" lon="2.11728">
        <ele>158</ele>
        <time>2022-01-09T06:44:38Z</time>
      </trkpt>
      <trkpt lat="48.77942" lon="2.11609">
        <ele>160</ele>
        <time>2022-01-09T06:46:50Z</time>
      </trkpt>
      <trkpt lat="48.77914" lon="2.11549">
        <ele>158</ele>
        <time>2022-01-09T06:47:54Z</time>
      </trkpt>
      <trkpt lat="48.78017" lon="2.11323">
        <ele>161</ele>
        <time>2022-01-09T06:51:56Z</time>
      </trkpt>
      <trkpt lat="48.78051" lon="2.11236">
        <ele>162</ele>
        <time>2022-01-09T06:53:25Z</time>
      </trkpt>
      <trkpt lat="48.78046" lon="2.11123">
        <ele>166</ele>
        <time>2022-01-09T06:55:04Z</time>
      </trkpt>
      <trkpt lat="48.78006" lon="2.10939">
        <ele>167</ele>
        <time>2022-01-09T06:57:55Z</time>
      </trkpt>
      <trkpt lat="48.77945" lon="2.10696">
        <ele>161</ele>
        <time>2022-01-09T07:01:43Z</time>
      </trkpt>
      <trkpt lat="48.77956" lon="2.10618">
        <ele>158</ele>
        <time>2022-01-09T07:02:54Z</time>
      </trkpt>
      <trkpt lat="48.77949" lon="2.10512">
        <ele>159</ele>
        <time>2022-01-09T07:04:27Z</time>
      </trkpt>
      <trkpt lat="48.77899" lon="2.10529">
        <ele>159</ele>
        <time>2022-01-09T07:05:36Z</time>
      </trkpt>
      <trkpt lat="48.77834" lon="2.10561">
        <ele>156</ele>
        <time>2022-01-09T07:07:07Z</time>
      </trkpt>
      <trkpt lat="48.77805" lon="2.106">
        <ele>153</ele>
        <time>2022-01-09T07:07:59Z</time>
      </trkpt>
      <trkpt lat="48.77774" lon="2.10657">
        <ele>150</ele>
        <time>2022-01-09T07:09:04Z</time>
      </trkpt>
      <trkpt lat="48.77764" lon="2.10754">
        <ele>141</ele>
        <time>2022-01-09T07:10:30Z</time>
      </trkpt>
      <trkpt lat="48.77744" lon="2.1077">
        <ele>138</ele>
        <time>2022-01-09T07:11:00Z</time>
      </trkpt>
      <trkpt lat="48.77641" lon="2.10789">
        <ele>129</ele>
        <time>2022-01-09T07:13:18Z</time>
      </trkpt>
      <trkpt lat="48.77578" lon="2.10812">
        <ele>120</ele>
        <time>2022-01-09T07:14:45Z</time>
      </trkpt>
      <trkpt lat="48.77535" lon="2.10683">
        <ele>118</ele>
        <time>2022-01-09T07:16:52Z</time>
      </trkpt>
      <trkpt lat="48.77538" lon="2.10654">
        <ele>119</ele>
        <time>2022-01-09T07:17:18Z</time>
      </trkpt>
      <trkpt lat="48.7759" lon="2.10557">
        <ele>123</ele>
        <time>2022-01-09T07:19:08Z</time>
      </trkpt>
      <trkpt lat="48.77616" lon="2.10448">
        <ele>127</ele>
        <time>2022-01-09T07:20:50Z</time>
      </trkpt>
      <trkpt lat="48.77628" lon="2.1032">
        <ele>126</ele>
        <time>2022-01-09T07:22:44Z</time>
      </trkpt>
      <trkpt lat="48.77615" lon="2.10218">
        <ele>122</ele>
        <time>2022-01-09T07:24:15Z</time>
      </trkpt>
      <trkpt lat="48.77623" lon="2.10097">
        <ele>122</ele>
        <time>2022-01-09T07:26:02Z</time>
      </trkpt>
      <trkpt lat="48.77616" lon="2.10055">
        <ele>119</ele>
        <time>2022-01-09T07:26:40Z</time>
      </trkpt>
      <trkpt lat="48.77578" lon="2.0999">
        <ele>119</ele>
        <time>2022-01-09T07:27:56Z</time>
      </trkpt>
      <trkpt lat="48.77561" lon="2.09974">
        <ele>122</ele>
        <time>2022-01-09T07:28:23Z</time>
      </trkpt>
      <trkpt lat="48.77538" lon="2.10015">
        <ele>122</ele>
        <time>2022-01-09T07:29:10Z</time>
      </trkpt>
      <trkpt lat="48.77528" lon="2.10062">
        <ele>121</ele>
        <time>2022-01-09T07:29:54Z</time>
      </trkpt>
      <trkpt lat="48.77513" lon="2.10112">
        <ele>121</ele>
        <time>2022-01-09T07:30:42Z</time>
      </trkpt>
      <trkpt lat="48.77513" lon="2.10161">
        <ele>120</ele>
        <time>2022-01-09T07:31:25Z</time>
      </trkpt>
      <trkpt lat="48.7752" lon="2.10238">
        <ele>120</ele>
        <time>2022-01-09T07:32:34Z</time>
      </trkpt>
      <trkpt lat="48.7751" lon="2.10284">
        <ele>120</ele>
        <time>2022-01-09T07:33:16Z</time>
      </trkpt>
      <trkpt lat="48.77408" lon="2.10604">
        <ele>119</ele>
        <time>2022-01-09T07:38:29Z</time>
      </trkpt>
      <trkpt lat="48.77578" lon="2.10817">
        <ele>120</ele>
        <time>2022-01-09T07:43:23Z</time>
      </trkpt>
      <trkpt lat="48.77537" lon="2.10963">
        <ele>114</ele>
        <time>2022-01-09T07:45:43Z</time>
      </trkpt>
      <trkpt lat="48.77523" lon="2.11013">
        <ele>114</ele>
        <time>2022-01-09T07:46:30Z</time>
      </trkpt>
      <trkpt lat="48.77511" lon="2.1103">
        <ele>115</ele>
        <time>2022-01-09T07:46:52Z</time>
      </trkpt>
      <trkpt lat="48.77509" lon="2.11058">
        <ele>117</ele>
        <time>2022-01-09T07:47:17Z</time>
      </trkpt>
      <trkpt lat="48.77552" lon="2.11073">
        <ele>115</ele>
        <time>2022-01-09T07:48:16Z</time>
      </trkpt>
      <trkpt lat="48.77577" lon="2.11113">
        <ele>113</ele>
        <time>2022-01-09T07:49:04Z</time>
      </trkpt>
      <trkpt lat="48.77597" lon="2.11179">
        <ele>113</ele>
        <time>2022-01-09T07:50:08Z</time>
      </trkpt>
      <trkpt lat="48.77604" lon="2.11511">
        <ele>116</ele>
        <time>2022-01-09T07:55:00Z</time>
      </trkpt>
      <trkpt lat="48.77597" lon="2.1159">
        <ele>115</ele>
        <time>2022-01-09T07:56:10Z</time>
      </trkpt>
      <trkpt lat="48.77615" lon="2.11666">
        <ele>113</ele>
        <time>2022-01-09T07:57:21Z</time>
      </trkpt>
      <trkpt lat="48.77622" lon="2.11689">
        <ele>113</ele>
        <time>2022-01-09T07:57:44Z</time>
      </trkpt>
      <trkpt lat="48.77623" lon="2.11765">
        <ele>115</ele>
        <time>2022-01-09T07:58:51Z</time>
      </trkpt>
      <trkpt lat="48.77638" lon="2.11769">
        <ele>114</ele>
        <time>2022-01-09T07:59:11Z</time>
      </trkpt>
      <trkpt lat="48.77649" lon="2.11799">
        <ele>112</ele>
        <time>2022-01-09T07:59:41Z</time>
      </trkpt>
      <trkpt lat="48.77678" lon="2.11805">
        <ele>111</ele>
        <time>2022-01-09T08:00:20Z</time>
      </trkpt>
      <trkpt lat="48.77689" lon="2.11829">
        <ele>112</ele>
        <time>2022-01-09T08:00:46Z</time>
      </trkpt>
      <trkpt lat="48.77684" lon="2.11913">
        <ele>110</ele>
        <time>2022-01-09T08:02:00Z</time>
      </trkpt>
      <trkpt lat="48.77681" lon="2.1195">
        <ele>109</ele>
        <time>2022-01-09T08:02:33Z</time>
      </trkpt>
      <trkpt lat="48.77661" lon="2.12081">
        <ele>106</ele>
        <time>2022-01-09T08:04:31Z</time>
      </trkpt>
      <trkpt lat="48.77642" lon="2.12122">
        <ele>106</ele>
        <time>2022-01-09T08:05:15Z</time>
      </trkpt>
      <trkpt lat="48.77624" lon="2.12193">
        <ele>106</ele>
        <time>2022-01-09T08:06:22Z</time>
      </trkpt>
      <trkpt lat="48.77607" lon="2.12269">
        <ele>107</ele>
        <time>2022-01-09T08:07:33Z</time>
      </trkpt>
      <trkpt lat="48.77586" lon="2.12285">
        <ele>107</ele>
        <time>2022-01-09T08:08:04Z</time>
      </trkpt>
      <trkpt lat="48.77575" lon="2.12309">
        <ele>106</ele>
        <time>2022-01-09T08:08:30Z</time>
      </trkpt>
      <trkpt lat="48.77553" lon="2.12325">
        <ele>107</ele>
        <time>2022-01-09T08:09:02Z</time>
      </trkpt>
      <trkpt lat="48.77545" lon="2.12389">
        <ele>106</ele>
        <time>2022-01-09T08:10:00Z</time>
      </trkpt>
      <trkpt lat="48.77527" lon="2.12434">
        <ele>106</ele>
        <time>2022-01-09T08:10:46Z</time>
      </trkpt>
      <trkpt lat="48.77531" lon="2.12451">
        <ele>106</ele>
        <time>2022-01-09T08:11:02Z</time>
      </trkpt>
      <trkpt lat="48.77498" lon="2.12515">
        <ele>105</ele>
        <time>2022-01-09T08:12:13Z</time>
      </trkpt>
      <trkpt lat="48.77494" lon="2.12583">
        <ele>106</ele>
        <time>2022-01-09T08:13:13Z</time>
      </trkpt>
    </trkseg>
  </trk>
</gpx>